sensor_id;sensor_type;location;lat;lon;timestamp;P1;durP1;ratioP1;P2;durP2;ratioP2
11522;SDS011;70090;43.208;27.904;2023-08-06T00:00:42;14.60;;;13.07;;
11522;SDS011;70090;43.208;27.904;2023-08-06T00:03:09;15.23;;;12.87;;
11522;SDS011;70090;43.208;27.904;2023-08-06T00:05:35;14.17;;;12.67;;
11522;SDS011;70090;43.208;27.904;2023-08-06T00:08:02;14.20;;;12.73;;
11522;SDS011;70090;43.208;27.904;2023-08-06T00:10:31;14.20;;;12.70;;
11522;SDS011;70090;43.208;27.904;2023-08-06T00:12:58;18.97;;;13.03;;
11522;SDS011;70090;43.208;27.904;2023-08-06T00:15:24;16.97;;;13.03;;
11522;SDS011;70090;43.208;27.904;2023-08-06T00:17:51;16.67;;;12.63;;
11522;SDS011;70090;43.208;27.904;2023-08-06T00:20:18;13.73;;;12.33;;
11522;SDS011;70090;43.208;27.904;2023-08-06T00:22:45;15.43;;;12.27;;
11522;SDS011;70090;43.208;27.904;2023-08-06T00:25:12;13.90;;;12.03;;
11522;SDS011;70090;43.208;27.904;2023-08-06T00:27:40;16.00;;;12.40;;
11522;SDS011;70090;43.208;27.904;2023-08-06T00:30:07;15.33;;;12.00;;
11522;SDS011;70090;43.208;27.904;2023-08-06T00:32:34;14.10;;;12.07;;
11522;SDS011;70090;43.208;27.904;2023-08-06T00:35:01;14.13;;;11.87;;
11522;SDS011;70090;43.208;27.904;2023-08-06T00:37:29;17.33;;;12.43;;
11522;SDS011;70090;43.208;27.904;2023-08-06T00:39:56;14.80;;;12.93;;
11522;SDS011;70090;43.208;27.904;2023-08-06T00:42:23;13.87;;;12.47;;
11522;SDS011;70090;43.208;27.904;2023-08-06T00:44:51;17.00;;;13.00;;
11522;SDS011;70090;43.208;27.904;2023-08-06T00:47:18;16.43;;;12.83;;
11522;SDS011;70090;43.208;27.904;2023-08-06T00:49:45;14.77;;;12.80;;
11522;SDS011;70090;43.208;27.904;2023-08-06T00:52:12;16.30;;;12.67;;
11522;SDS011;70090;43.208;27.904;2023-08-06T00:54:39;13.33;;;11.93;;
11522;SDS011;70090;43.208;27.904;2023-08-06T00:57:07;15.70;;;12.67;;
11522;SDS011;70090;43.208;27.904;2023-08-06T00:59:35;16.03;;;12.10;;
11522;SDS011;70090;43.208;27.904;2023-08-06T01:02:04;16.00;;;12.10;;
11522;SDS011;70090;43.208;27.904;2023-08-06T01:04:31;15.57;;;11.83;;
11522;SDS011;70090;43.208;27.904;2023-08-06T01:07:02;16.13;;;12.33;;
11522;SDS011;70090;43.208;27.904;2023-08-06T01:09:42;17.57;;;12.10;;
11522;SDS011;70090;43.208;27.904;2023-08-06T01:12:18;15.17;;;12.00;;
11522;SDS011;70090;43.208;27.904;2023-08-06T01:14:57;14.27;;;11.90;;
11522;SDS011;70090;43.208;27.904;2023-08-06T01:17:33;13.33;;;11.90;;
11522;SDS011;70090;43.208;27.904;2023-08-06T01:20:01;17.70;;;12.90;;
11522;SDS011;70090;43.208;27.904;2023-08-06T01:22:30;17.50;;;13.37;;
11522;SDS011;70090;43.208;27.904;2023-08-06T01:24:57;14.90;;;11.90;;
11522;SDS011;70090;43.208;27.904;2023-08-06T01:27:26;14.03;;;12.07;;
11522;SDS011;70090;43.208;27.904;2023-08-06T01:30:02;15.07;;;12.20;;
11522;SDS011;70090;43.208;27.904;2023-08-06T01:32:33;13.30;;;11.93;;
11522;SDS011;70090;43.208;27.904;2023-08-06T01:35:02;13.77;;;11.90;;
11522;SDS011;70090;43.208;27.904;2023-08-06T01:37:31;15.80;;;12.57;;
11522;SDS011;70090;43.208;27.904;2023-08-06T01:39:59;16.13;;;12.97;;
11522;SDS011;70090;43.208;27.904;2023-08-06T01:42:25;14.37;;;11.77;;
11522;SDS011;70090;43.208;27.904;2023-08-06T01:44:52;13.83;;;12.37;;
11522;SDS011;70090;43.208;27.904;2023-08-06T01:47:19;18.40;;;12.43;;
11522;SDS011;70090;43.208;27.904;2023-08-06T01:49:46;13.60;;;12.17;;
11522;SDS011;70090;43.208;27.904;2023-08-06T01:52:13;16.70;;;12.80;;
11522;SDS011;70090;43.208;27.904;2023-08-06T01:54:41;14.30;;;12.80;;
11522;SDS011;70090;43.208;27.904;2023-08-06T01:57:08;14.23;;;12.10;;
11522;SDS011;70090;43.208;27.904;2023-08-06T01:59:35;14.30;;;12.87;;
11522;SDS011;70090;43.208;27.904;2023-08-06T02:02:02;13.37;;;11.93;;
11522;SDS011;70090;43.208;27.904;2023-08-06T02:04:29;14.33;;;12.83;;
11522;SDS011;70090;43.208;27.904;2023-08-06T02:06:55;13.50;;;12.20;;
11522;SDS011;70090;43.208;27.904;2023-08-06T02:09:22;16.43;;;13.13;;
11522;SDS011;70090;43.208;27.904;2023-08-06T02:11:50;13.57;;;12.27;;
11522;SDS011;70090;43.208;27.904;2023-08-06T02:14:17;13.17;;;11.87;;
11522;SDS011;70090;43.208;27.904;2023-08-06T02:16:44;15.80;;;11.87;;
11522;SDS011;70090;43.208;27.904;2023-08-06T02:19:11;14.37;;;12.23;;
11522;SDS011;70090;43.208;27.904;2023-08-06T02:21:38;15.67;;;11.97;;
11522;SDS011;70090;43.208;27.904;2023-08-06T02:24:04;14.00;;;12.57;;
11522;SDS011;70090;43.208;27.904;2023-08-06T02:26:31;13.10;;;11.67;;
11522;SDS011;70090;43.208;27.904;2023-08-06T02:28:59;13.27;;;11.87;;
11522;SDS011;70090;43.208;27.904;2023-08-06T02:31:26;15.10;;;12.13;;
11522;SDS011;70090;43.208;27.904;2023-08-06T02:33:53;14.73;;;12.37;;
11522;SDS011;70090;43.208;27.904;2023-08-06T02:36:20;17.53;;;11.97;;
11522;SDS011;70090;43.208;27.904;2023-08-06T02:38:47;15.93;;;12.27;;
11522;SDS011;70090;43.208;27.904;2023-08-06T02:41:14;16.13;;;12.00;;
11522;SDS011;70090;43.208;27.904;2023-08-06T02:43:40;15.03;;;12.73;;
11522;SDS011;70090;43.208;27.904;2023-08-06T02:46:09;16.13;;;12.63;;
11522;SDS011;70090;43.208;27.904;2023-08-06T02:48:36;14.30;;;11.70;;
11522;SDS011;70090;43.208;27.904;2023-08-06T02:51:02;16.37;;;12.60;;
11522;SDS011;70090;43.208;27.904;2023-08-06T02:53:29;19.40;;;12.60;;
11522;SDS011;70090;43.208;27.904;2023-08-06T02:55:56;19.67;;;12.37;;
11522;SDS011;70090;43.208;27.904;2023-08-06T02:58:24;14.60;;;12.47;;
11522;SDS011;70090;43.208;27.904;2023-08-06T03:01:00;14.47;;;12.93;;
11522;SDS011;70090;43.208;27.904;2023-08-06T03:03:29;15.13;;;13.53;;
11522;SDS011;70090;43.208;27.904;2023-08-06T03:05:56;18.37;;;16.37;;
11522;SDS011;70090;43.208;27.904;2023-08-06T03:08:24;14.73;;;13.23;;
11522;SDS011;70090;43.208;27.904;2023-08-06T03:10:51;14.63;;;13.10;;
11522;SDS011;70090;43.208;27.904;2023-08-06T03:13:18;14.90;;;13.13;;
11522;SDS011;70090;43.208;27.904;2023-08-06T03:15:51;18.13;;;16.03;;
11522;SDS011;70090;43.208;27.904;2023-08-06T03:18:19;17.33;;;15.50;;
11522;SDS011;70090;43.208;27.904;2023-08-06T03:20:47;17.70;;;15.80;;
11522;SDS011;70090;43.208;27.904;2023-08-06T03:23:14;24.33;;;16.33;;
11522;SDS011;70090;43.208;27.904;2023-08-06T03:25:41;18.47;;;16.57;;
11522;SDS011;70090;43.208;27.904;2023-08-06T03:28:08;22.07;;;16.30;;
11522;SDS011;70090;43.208;27.904;2023-08-06T03:30:35;19.50;;;17.00;;
11522;SDS011;70090;43.208;27.904;2023-08-06T03:33:02;21.97;;;16.63;;
11522;SDS011;70090;43.208;27.904;2023-08-06T03:35:29;19.90;;;16.17;;
11522;SDS011;70090;43.208;27.904;2023-08-06T03:37:57;20.17;;;15.63;;
11522;SDS011;70090;43.208;27.904;2023-08-06T03:40:24;20.13;;;15.77;;
11522;SDS011;70090;43.208;27.904;2023-08-06T03:42:50;19.27;;;15.93;;
11522;SDS011;70090;43.208;27.904;2023-08-06T03:45:17;18.27;;;16.07;;
11522;SDS011;70090;43.208;27.904;2023-08-06T03:47:44;18.07;;;16.13;;
11522;SDS011;70090;43.208;27.904;2023-08-06T03:50:11;19.30;;;16.90;;
11522;SDS011;70090;43.208;27.904;2023-08-06T03:52:38;22.77;;;19.80;;
11522;SDS011;70090;43.208;27.904;2023-08-06T03:55:06;21.40;;;19.23;;
11522;SDS011;70090;43.208;27.904;2023-08-06T03:57:33;21.30;;;18.03;;
11522;SDS011;70090;43.208;27.904;2023-08-06T04:00:00;19.13;;;17.13;;
11522;SDS011;70090;43.208;27.904;2023-08-06T04:02:28;18.67;;;16.70;;
11522;SDS011;70090;43.208;27.904;2023-08-06T04:04:55;20.03;;;16.57;;
11522;SDS011;70090;43.208;27.904;2023-08-06T04:07:24;19.93;;;17.03;;
11522;SDS011;70090;43.208;27.904;2023-08-06T04:09:52;18.00;;;16.10;;
11522;SDS011;70090;43.208;27.904;2023-08-06T04:12:21;16.13;;;14.53;;
11522;SDS011;70090;43.208;27.904;2023-08-06T04:14:48;16.07;;;14.40;;
11522;SDS011;70090;43.208;27.904;2023-08-06T04:17:17;15.67;;;14.10;;
11522;SDS011;70090;43.208;27.904;2023-08-06T04:19:46;17.87;;;16.00;;
11522;SDS011;70090;43.208;27.904;2023-08-06T04:22:13;18.10;;;16.03;;
11522;SDS011;70090;43.208;27.904;2023-08-06T04:24:41;19.43;;;16.73;;
11522;SDS011;70090;43.208;27.904;2023-08-06T04:27:08;18.80;;;15.60;;
11522;SDS011;70090;43.208;27.904;2023-08-06T04:29:37;17.97;;;16.10;;
11522;SDS011;70090;43.208;27.904;2023-08-06T04:32:05;16.50;;;14.60;;
11522;SDS011;70090;43.208;27.904;2023-08-06T04:34:32;17.07;;;14.87;;
11522;SDS011;70090;43.208;27.904;2023-08-06T04:36:59;17.03;;;13.77;;
11522;SDS011;70090;43.208;27.904;2023-08-06T04:39:27;17.00;;;15.10;;
11522;SDS011;70090;43.208;27.904;2023-08-06T04:41:54;17.30;;;15.50;;
11522;SDS011;70090;43.208;27.904;2023-08-06T04:44:22;16.63;;;14.93;;
11522;SDS011;70090;43.208;27.904;2023-08-06T04:46:50;19.60;;;15.80;;
11522;SDS011;70090;43.208;27.904;2023-08-06T04:49:17;19.37;;;15.90;;
11522;SDS011;70090;43.208;27.904;2023-08-06T04:51:44;15.17;;;13.30;;
11522;SDS011;70090;43.208;27.904;2023-08-06T04:54:11;16.07;;;14.37;;
11522;SDS011;70090;43.208;27.904;2023-08-06T04:56:37;18.77;;;15.70;;
11522;SDS011;70090;43.208;27.904;2023-08-06T04:59:04;19.40;;;15.77;;
11522;SDS011;70090;43.208;27.904;2023-08-06T05:01:32;16.90;;;14.37;;
11522;SDS011;70090;43.208;27.904;2023-08-06T05:04:00;16.43;;;12.23;;
11522;SDS011;70090;43.208;27.904;2023-08-06T05:06:27;13.63;;;11.80;;
11522;SDS011;70090;43.208;27.904;2023-08-06T05:08:53;14.93;;;12.50;;
11522;SDS011;70090;43.208;27.904;2023-08-06T05:11:20;16.23;;;12.70;;
11522;SDS011;70090;43.208;27.904;2023-08-06T05:13:47;15.77;;;12.60;;
11522;SDS011;70090;43.208;27.904;2023-08-06T05:16:14;13.63;;;11.17;;
11522;SDS011;70090;43.208;27.904;2023-08-06T05:18:41;13.73;;;11.90;;
11522;SDS011;70090;43.208;27.904;2023-08-06T05:21:09;12.60;;;11.30;;
11522;SDS011;70090;43.208;27.904;2023-08-06T05:23:36;14.03;;;11.33;;
11522;SDS011;70090;43.208;27.904;2023-08-06T05:26:03;12.87;;;11.50;;
11522;SDS011;70090;43.208;27.904;2023-08-06T05:28:29;12.77;;;10.70;;
11522;SDS011;70090;43.208;27.904;2023-08-06T05:30:56;14.00;;;10.97;;
11522;SDS011;70090;43.208;27.904;2023-08-06T05:33:23;15.57;;;11.97;;
11522;SDS011;70090;43.208;27.904;2023-08-06T05:35:50;14.93;;;12.77;;
11522;SDS011;70090;43.208;27.904;2023-08-06T05:38:18;15.57;;;10.57;;
11522;SDS011;70090;43.208;27.904;2023-08-06T05:40:45;11.73;;;10.27;;
11522;SDS011;70090;43.208;27.904;2023-08-06T05:43:12;12.83;;;10.40;;
11522;SDS011;70090;43.208;27.904;2023-08-06T05:45:39;11.23;;;9.13;;
11522;SDS011;70090;43.208;27.904;2023-08-06T05:48:10;12.70;;;10.23;;
11522;SDS011;70090;43.208;27.904;2023-08-06T05:50:37;11.93;;;9.97;;
11522;SDS011;70090;43.208;27.904;2023-08-06T05:53:03;13.73;;;10.07;;
11522;SDS011;70090;43.208;27.904;2023-08-06T05:55:32;14.63;;;10.37;;
11522;SDS011;70090;43.208;27.904;2023-08-06T05:57:59;12.47;;;9.90;;
11522;SDS011;70090;43.208;27.904;2023-08-06T06:00:25;11.43;;;10.33;;
11522;SDS011;70090;43.208;27.904;2023-08-06T06:02:52;14.27;;;9.77;;
11522;SDS011;70090;43.208;27.904;2023-08-06T06:05:19;16.60;;;10.03;;
11522;SDS011;70090;43.208;27.904;2023-08-06T06:07:46;18.60;;;10.10;;
11522;SDS011;70090;43.208;27.904;2023-08-06T06:10:13;11.90;;;9.30;;
11522;SDS011;70090;43.208;27.904;2023-08-06T06:12:41;11.17;;;9.20;;
11522;SDS011;70090;43.208;27.904;2023-08-06T06:15:08;12.73;;;9.83;;
11522;SDS011;70090;43.208;27.904;2023-08-06T06:17:35;12.17;;;8.93;;
11522;SDS011;70090;43.208;27.904;2023-08-06T06:20:03;9.77;;;8.80;;
11522;SDS011;70090;43.208;27.904;2023-08-06T06:22:30;12.77;;;8.40;;
11522;SDS011;70090;43.208;27.904;2023-08-06T06:24:57;11.07;;;8.83;;
11522;SDS011;70090;43.208;27.904;2023-08-06T06:27:24;12.30;;;8.53;;
11522;SDS011;70090;43.208;27.904;2023-08-06T06:29:52;9.93;;;8.60;;
11522;SDS011;70090;43.208;27.904;2023-08-06T06:32:19;9.73;;;8.40;;
11522;SDS011;70090;43.208;27.904;2023-08-06T06:34:47;12.23;;;9.10;;
11522;SDS011;70090;43.208;27.904;2023-08-06T06:37:14;10.17;;;8.07;;
11522;SDS011;70090;43.208;27.904;2023-08-06T06:39:40;11.53;;;8.37;;
11522;SDS011;70090;43.208;27.904;2023-08-06T06:42:07;9.90;;;8.90;;
11522;SDS011;70090;43.208;27.904;2023-08-06T06:44:34;10.30;;;8.13;;
11522;SDS011;70090;43.208;27.904;2023-08-06T06:47:03;10.63;;;8.73;;
11522;SDS011;70090;43.208;27.904;2023-08-06T06:49:30;9.47;;;8.03;;
11522;SDS011;70090;43.208;27.904;2023-08-06T06:51:57;10.43;;;7.90;;
11522;SDS011;70090;43.208;27.904;2023-08-06T06:54:23;11.93;;;8.90;;
11522;SDS011;70090;43.208;27.904;2023-08-06T06:56:50;10.30;;;8.60;;
11522;SDS011;70090;43.208;27.904;2023-08-06T06:59:17;12.57;;;8.53;;
11522;SDS011;70090;43.208;27.904;2023-08-06T07:01:44;10.83;;;8.50;;
11522;SDS011;70090;43.208;27.904;2023-08-06T07:04:12;11.13;;;8.03;;
11522;SDS011;70090;43.208;27.904;2023-08-06T07:06:39;8.87;;;7.50;;
11522;SDS011;70090;43.208;27.904;2023-08-06T07:09:06;12.07;;;8.10;;
11522;SDS011;70090;43.208;27.904;2023-08-06T07:11:32;8.40;;;7.70;;
11522;SDS011;70090;43.208;27.904;2023-08-06T07:13:59;10.77;;;8.00;;
11522;SDS011;70090;43.208;27.904;2023-08-06T07:16:26;13.00;;;7.80;;
11522;SDS011;70090;43.208;27.904;2023-08-06T07:18:54;11.53;;;8.30;;
11522;SDS011;70090;43.208;27.904;2023-08-06T07:21:22;11.67;;;7.97;;
11522;SDS011;70090;43.208;27.904;2023-08-06T07:23:49;9.03;;;7.83;;
11522;SDS011;70090;43.208;27.904;2023-08-06T07:26:16;9.10;;;8.07;;
11522;SDS011;70090;43.208;27.904;2023-08-06T07:28:43;10.20;;;7.80;;
11522;SDS011;70090;43.208;27.904;2023-08-06T07:31:10;8.97;;;7.73;;
11522;SDS011;70090;43.208;27.904;2023-08-06T07:33:37;9.67;;;8.23;;
11522;SDS011;70090;43.208;27.904;2023-08-06T07:36:07;9.27;;;8.37;;
11522;SDS011;70090;43.208;27.904;2023-08-06T07:38:36;11.27;;;8.33;;
11522;SDS011;70090;43.208;27.904;2023-08-06T07:41:03;8.93;;;7.93;;
11522;SDS011;70090;43.208;27.904;2023-08-06T07:43:30;9.83;;;8.10;;
11522;SDS011;70090;43.208;27.904;2023-08-06T07:45:58;11.53;;;7.97;;
11522;SDS011;70090;43.208;27.904;2023-08-06T07:48:25;9.40;;;7.23;;
11522;SDS011;70090;43.208;27.904;2023-08-06T07:50:52;9.63;;;7.63;;
11522;SDS011;70090;43.208;27.904;2023-08-06T07:53:19;10.53;;;7.83;;
11522;SDS011;70090;43.208;27.904;2023-08-06T07:55:49;11.87;;;8.07;;
11522;SDS011;70090;43.208;27.904;2023-08-06T07:58:17;12.37;;;8.20;;
11522;SDS011;70090;43.208;27.904;2023-08-06T08:00:44;10.53;;;8.37;;
11522;SDS011;70090;43.208;27.904;2023-08-06T08:03:11;8.30;;;7.50;;
11522;SDS011;70090;43.208;27.904;2023-08-06T08:05:39;12.60;;;7.27;;
11522;SDS011;70090;43.208;27.904;2023-08-06T08:08:06;8.77;;;7.00;;
11522;SDS011;70090;43.208;27.904;2023-08-06T08:10:33;8.63;;;7.00;;
11522;SDS011;70090;43.208;27.904;2023-08-06T08:13:02;9.13;;;7.50;;
11522;SDS011;70090;43.208;27.904;2023-08-06T08:15:30;10.17;;;7.83;;
11522;SDS011;70090;43.208;27.904;2023-08-06T08:17:58;9.60;;;7.83;;
11522;SDS011;70090;43.208;27.904;2023-08-06T08:20:25;8.73;;;7.90;;
11522;SDS011;70090;43.208;27.904;2023-08-06T08:22:56;10.47;;;8.00;;
11522;SDS011;70090;43.208;27.904;2023-08-06T08:25:24;8.30;;;7.50;;
11522;SDS011;70090;43.208;27.904;2023-08-06T08:27:52;9.20;;;7.17;;
11522;SDS011;70090;43.208;27.904;2023-08-06T08:30:20;9.73;;;7.23;;
11522;SDS011;70090;43.208;27.904;2023-08-06T08:32:47;10.37;;;7.23;;
11522;SDS011;70090;43.208;27.904;2023-08-06T08:35:14;9.90;;;7.53;;
11522;SDS011;70090;43.208;27.904;2023-08-06T08:37:41;10.00;;;7.77;;
11522;SDS011;70090;43.208;27.904;2023-08-06T08:40:08;11.27;;;8.30;;
11522;SDS011;70090;43.208;27.904;2023-08-06T08:42:36;8.47;;;7.37;;
11522;SDS011;70090;43.208;27.904;2023-08-06T08:45:04;11.30;;;7.70;;
11522;SDS011;70090;43.208;27.904;2023-08-06T08:47:35;8.50;;;7.40;;
11522;SDS011;70090;43.208;27.904;2023-08-06T08:50:03;11.27;;;7.67;;
11522;SDS011;70090;43.208;27.904;2023-08-06T08:52:33;9.80;;;7.57;;
11522;SDS011;70090;43.208;27.904;2023-08-06T08:55:02;10.33;;;7.67;;
11522;SDS011;70090;43.208;27.904;2023-08-06T08:57:29;11.13;;;7.90;;
11522;SDS011;70090;43.208;27.904;2023-08-06T08:59:56;11.27;;;7.70;;
11522;SDS011;70090;43.208;27.904;2023-08-06T09:02:22;9.30;;;7.60;;
11522;SDS011;70090;43.208;27.904;2023-08-06T09:04:54;9.60;;;7.20;;
11522;SDS011;70090;43.208;27.904;2023-08-06T09:07:22;10.87;;;8.40;;
11522;SDS011;70090;43.208;27.904;2023-08-06T09:09:51;9.97;;;7.53;;
11522;SDS011;70090;43.208;27.904;2023-08-06T09:12:19;8.93;;;7.57;;
11522;SDS011;70090;43.208;27.904;2023-08-06T09:14:47;12.40;;;7.80;;
11522;SDS011;70090;43.208;27.904;2023-08-06T09:17:14;9.80;;;7.67;;
11522;SDS011;70090;43.208;27.904;2023-08-06T09:19:44;9.90;;;7.50;;
11522;SDS011;70090;43.208;27.904;2023-08-06T09:22:14;11.57;;;7.27;;
11522;SDS011;70090;43.208;27.904;2023-08-06T09:24:41;7.87;;;6.83;;
11522;SDS011;70090;43.208;27.904;2023-08-06T09:27:10;8.80;;;7.43;;
11522;SDS011;70090;43.208;27.904;2023-08-06T09:29:42;8.03;;;6.97;;
11522;SDS011;70090;43.208;27.904;2023-08-06T09:32:10;8.40;;;6.93;;
11522;SDS011;70090;43.208;27.904;2023-08-06T09:34:38;9.50;;;6.90;;
11522;SDS011;70090;43.208;27.904;2023-08-06T09:37:06;8.73;;;7.20;;
11522;SDS011;70090;43.208;27.904;2023-08-06T09:39:37;8.97;;;7.10;;
11522;SDS011;70090;43.208;27.904;2023-08-06T09:42:04;7.53;;;6.70;;
11522;SDS011;70090;43.208;27.904;2023-08-06T09:44:32;7.97;;;7.17;;
11522;SDS011;70090;43.208;27.904;2023-08-06T09:47:00;9.90;;;7.53;;
11522;SDS011;70090;43.208;27.904;2023-08-06T09:49:29;9.80;;;7.07;;
11522;SDS011;70090;43.208;27.904;2023-08-06T09:52:08;9.03;;;7.50;;
11522;SDS011;70090;43.208;27.904;2023-08-06T09:54:39;8.47;;;6.90;;
11522;SDS011;70090;43.208;27.904;2023-08-06T09:57:06;8.80;;;7.27;;
11522;SDS011;70090;43.208;27.904;2023-08-06T09:59:33;10.00;;;6.93;;
11522;SDS011;70090;43.208;27.904;2023-08-06T10:02:01;6.90;;;6.07;;
11522;SDS011;70090;43.208;27.904;2023-08-06T10:04:34;7.97;;;7.20;;
11522;SDS011;70090;43.208;27.904;2023-08-06T10:07:01;9.20;;;7.40;;
11522;SDS011;70090;43.208;27.904;2023-08-06T10:09:28;8.73;;;6.87;;
11522;SDS011;70090;43.208;27.904;2023-08-06T10:11:56;9.57;;;6.97;;
11522;SDS011;70090;43.208;27.904;2023-08-06T10:14:27;8.37;;;6.80;;
11522;SDS011;70090;43.208;27.904;2023-08-06T10:16:57;8.30;;;6.50;;
11522;SDS011;70090;43.208;27.904;2023-08-06T10:19:24;10.27;;;6.83;;
11522;SDS011;70090;43.208;27.904;2023-08-06T10:22:08;7.97;;;6.60;;
11522;SDS011;70090;43.208;27.904;2023-08-06T10:24:46;7.50;;;6.70;;
11522;SDS011;70090;43.208;27.904;2023-08-06T10:27:27;10.20;;;7.43;;
11522;SDS011;70090;43.208;27.904;2023-08-06T10:29:56;9.67;;;7.27;;
11522;SDS011;70090;43.208;27.904;2023-08-06T10:32:36;9.10;;;6.37;;
11522;SDS011;70090;43.208;27.904;2023-08-06T10:35:27;8.97;;;6.83;;
11522;SDS011;70090;43.208;27.904;2023-08-06T10:37:57;9.53;;;6.50;;
11522;SDS011;70090;43.208;27.904;2023-08-06T10:40:25;7.67;;;6.50;;
11522;SDS011;70090;43.208;27.904;2023-08-06T10:42:55;10.27;;;7.10;;
11522;SDS011;70090;43.208;27.904;2023-08-06T10:45:25;8.37;;;6.97;;
11522;SDS011;70090;43.208;27.904;2023-08-06T10:47:54;8.67;;;6.90;;
11522;SDS011;70090;43.208;27.904;2023-08-06T10:50:22;7.60;;;6.80;;
11522;SDS011;70090;43.208;27.904;2023-08-06T10:52:50;9.00;;;6.83;;
11522;SDS011;70090;43.208;27.904;2023-08-06T10:55:24;7.57;;;6.90;;
11522;SDS011;70090;43.208;27.904;2023-08-06T10:57:51;9.03;;;7.60;;
11522;SDS011;70090;43.208;27.904;2023-08-06T11:00:20;8.50;;;7.60;;
11522;SDS011;70090;43.208;27.904;2023-08-06T11:02:47;10.90;;;7.77;;
11522;SDS011;70090;43.208;27.904;2023-08-06T11:05:15;9.43;;;7.33;;
11522;SDS011;70090;43.208;27.904;2023-08-06T11:07:42;8.80;;;7.00;;
11522;SDS011;70090;43.208;27.904;2023-08-06T11:10:09;8.17;;;6.83;;
11522;SDS011;70090;43.208;27.904;2023-08-06T11:12:37;9.07;;;7.10;;
11522;SDS011;70090;43.208;27.904;2023-08-06T11:15:05;9.00;;;7.13;;
11522;SDS011;70090;43.208;27.904;2023-08-06T11:17:34;9.47;;;7.13;;
11522;SDS011;70090;43.208;27.904;2023-08-06T11:20:02;7.80;;;7.00;;
11522;SDS011;70090;43.208;27.904;2023-08-06T11:22:30;9.47;;;7.27;;
11522;SDS011;70090;43.208;27.904;2023-08-06T11:24:57;9.83;;;7.40;;
11522;SDS011;70090;43.208;27.904;2023-08-06T11:27:26;8.97;;;7.07;;
11522;SDS011;70090;43.208;27.904;2023-08-06T11:29:54;9.10;;;6.83;;
11522;SDS011;70090;43.208;27.904;2023-08-06T11:32:21;7.60;;;6.77;;
11522;SDS011;70090;43.208;27.904;2023-08-06T11:34:49;8.10;;;7.20;;
11522;SDS011;70090;43.208;27.904;2023-08-06T11:37:16;10.27;;;7.43;;
11522;SDS011;70090;43.208;27.904;2023-08-06T11:39:47;9.20;;;7.23;;
11522;SDS011;70090;43.208;27.904;2023-08-06T11:42:14;10.13;;;7.03;;
11522;SDS011;70090;43.208;27.904;2023-08-06T11:44:41;7.70;;;6.90;;
11522;SDS011;70090;43.208;27.904;2023-08-06T11:47:12;8.23;;;7.27;;
11522;SDS011;70090;43.208;27.904;2023-08-06T11:49:40;8.50;;;7.50;;
11522;SDS011;70090;43.208;27.904;2023-08-06T11:52:13;10.67;;;7.43;;
11522;SDS011;70090;43.208;27.904;2023-08-06T11:54:41;8.63;;;7.83;;
11522;SDS011;70090;43.208;27.904;2023-08-06T11:57:08;9.83;;;7.93;;
11522;SDS011;70090;43.208;27.904;2023-08-06T11:59:36;9.57;;;7.33;;
11522;SDS011;70090;43.208;27.904;2023-08-06T12:02:04;10.23;;;7.93;;
11522;SDS011;70090;43.208;27.904;2023-08-06T12:07:27;20.33;;;9.27;;
11522;SDS011;70090;43.208;27.904;2023-08-06T12:09:55;13.27;;;5.87;;
11522;SDS011;70090;43.208;27.904;2023-08-06T12:12:22;8.50;;;4.57;;
11522;SDS011;70090;43.208;27.904;2023-08-06T12:14:49;11.40;;;5.03;;
11522;SDS011;70090;43.208;27.904;2023-08-06T12:17:16;14.07;;;5.60;;
11522;SDS011;70090;43.208;27.904;2023-08-06T12:19:44;8.50;;;4.70;;
11522;SDS011;70090;43.208;27.904;2023-08-06T12:22:11;7.20;;;4.87;;
11522;SDS011;70090;43.208;27.904;2023-08-06T12:24:40;9.27;;;4.50;;
11522;SDS011;70090;43.208;27.904;2023-08-06T12:27:07;6.83;;;5.03;;
11522;SDS011;70090;43.208;27.904;2023-08-06T12:29:34;7.23;;;5.20;;
11522;SDS011;70090;43.208;27.904;2023-08-06T12:32:00;7.03;;;5.20;;
11522;SDS011;70090;43.208;27.904;2023-08-06T12:34:27;7.17;;;5.30;;
11522;SDS011;70090;43.208;27.904;2023-08-06T12:36:54;6.23;;;5.53;;
11522;SDS011;70090;43.208;27.904;2023-08-06T12:39:21;6.77;;;5.80;;
11522;SDS011;70090;43.208;27.904;2023-08-06T12:41:49;8.33;;;6.23;;
11522;SDS011;70090;43.208;27.904;2023-08-06T12:44:16;6.73;;;5.97;;
11522;SDS011;70090;43.208;27.904;2023-08-06T12:46:43;10.90;;;6.50;;
11522;SDS011;70090;43.208;27.904;2023-08-06T12:49:10;9.37;;;7.00;;
11522;SDS011;70090;43.208;27.904;2023-08-06T12:51:36;10.10;;;6.80;;
11522;SDS011;70090;43.208;27.904;2023-08-06T12:54:03;8.13;;;6.93;;
11522;SDS011;70090;43.208;27.904;2023-08-06T12:56:30;7.47;;;6.77;;
11522;SDS011;70090;43.208;27.904;2023-08-06T12:58:58;10.90;;;9.53;;
11522;SDS011;70090;43.208;27.904;2023-08-06T13:01:25;9.90;;;6.80;;
11522;SDS011;70090;43.208;27.904;2023-08-06T13:03:52;9.03;;;6.10;;
11522;SDS011;70090;43.208;27.904;2023-08-06T13:06:19;8.27;;;6.77;;
11522;SDS011;70090;43.208;27.904;2023-08-06T13:08:46;10.30;;;6.70;;
11522;SDS011;70090;43.208;27.904;2023-08-06T13:11:13;8.27;;;6.20;;
11522;SDS011;70090;43.208;27.904;2023-08-06T13:13:39;9.93;;;5.90;;
11522;SDS011;70090;43.208;27.904;2023-08-06T13:16:08;7.83;;;5.70;;
11522;SDS011;70090;43.208;27.904;2023-08-06T13:18:35;8.33;;;5.53;;
11522;SDS011;70090;43.208;27.904;2023-08-06T13:21:01;7.43;;;5.77;;
11522;SDS011;70090;43.208;27.904;2023-08-06T13:23:28;11.00;;;5.60;;
11522;SDS011;70090;43.208;27.904;2023-08-06T13:25:55;8.13;;;5.60;;
11522;SDS011;70090;43.208;27.904;2023-08-06T13:28:22;6.53;;;5.17;;
11522;SDS011;70090;43.208;27.904;2023-08-06T13:30:49;6.73;;;5.03;;
11522;SDS011;70090;43.208;27.904;2023-08-06T13:33:17;5.27;;;4.77;;
11522;SDS011;70090;43.208;27.904;2023-08-06T13:35:44;5.10;;;4.70;;
11522;SDS011;70090;43.208;27.904;2023-08-06T13:38:11;5.53;;;4.43;;
11522;SDS011;70090;43.208;27.904;2023-08-06T13:40:37;5.10;;;4.60;;
11522;SDS011;70090;43.208;27.904;2023-08-06T13:43:05;4.77;;;4.37;;
11522;SDS011;70090;43.208;27.904;2023-08-06T13:45:32;5.17;;;3.87;;
11522;SDS011;70090;43.208;27.904;2023-08-06T13:48:00;5.03;;;4.53;;
11522;SDS011;70090;43.208;27.904;2023-08-06T13:50:28;4.90;;;4.30;;
11522;SDS011;70090;43.208;27.904;2023-08-06T13:52:55;4.60;;;4.10;;
11522;SDS011;70090;43.208;27.904;2023-08-06T13:55:21;5.13;;;4.67;;
11522;SDS011;70090;43.208;27.904;2023-08-06T13:57:48;5.33;;;4.80;;
11522;SDS011;70090;43.208;27.904;2023-08-06T14:00:16;7.00;;;4.87;;
11522;SDS011;70090;43.208;27.904;2023-08-06T14:02:43;6.43;;;5.00;;
11522;SDS011;70090;43.208;27.904;2023-08-06T14:05:10;6.77;;;4.90;;
11522;SDS011;70090;43.208;27.904;2023-08-06T14:07:38;8.57;;;5.10;;
11522;SDS011;70090;43.208;27.904;2023-08-06T14:10:06;8.07;;;4.73;;
11522;SDS011;70090;43.208;27.904;2023-08-06T14:12:34;7.87;;;5.50;;
11522;SDS011;70090;43.208;27.904;2023-08-06T14:15:01;6.40;;;4.97;;
11522;SDS011;70090;43.208;27.904;2023-08-06T14:17:29;6.80;;;5.00;;
11522;SDS011;70090;43.208;27.904;2023-08-06T14:19:56;6.37;;;4.67;;
11522;SDS011;70090;43.208;27.904;2023-08-06T14:22:23;5.60;;;5.00;;
11522;SDS011;70090;43.208;27.904;2023-08-06T14:24:51;6.63;;;4.97;;
11522;SDS011;70090;43.208;27.904;2023-08-06T14:27:18;7.90;;;5.30;;